Weather observations for the past three days for
Palau International Airport
| Date | Time (+09) | Wind (mph) | Vis. (mi.) | Weather | Sky Cond. | Temperature (ºF) | Relative Humidity | Wind Chill (°F) | Heat Index (°F) | Pressure | Precipitation (in) | ||||||
|---|---|---|---|---|---|---|---|---|---|---|---|---|---|---|---|---|---|
| Air | Dwpt | 6 hour | altimeter (in) | sea level (mb) | 1 hr | 3 hr | 6 hr | ||||||||||
| Max. | Min. | ||||||||||||||||
| 06 | 21:50 | NE 5 | 13.00 | Mostly Cloudy | SCT015 BKN110 BKN290 | 78.8 | 75.2 | 89% | 82 | 29.83 | 0.0 | ||||||
| 06 | 20:50 | NE 5 | 13.00 | Mostly Cloudy | SCT015 BKN110 BKN290 | 78.8 | 77 | 94% | 83 | 29.82 | 0.0 | ||||||
| 06 | 19:50 | NE 5 | 13.00 | Mostly Cloudy | SCT015 BKN110 BKN290 | 80.6 | 77 | 89% | 87 | 29.82 | 0.0 | ||||||
| 06 | 18:50 | NE 5 | 13.00 | Mostly Cloudy | FEW009 BKN016TCU BKN120 BKN300 | 80.6 | 77 | 89% | 87 | 29.78 | 0.0 | ||||||
| 06 | 17:50 | E 5 | 13.00 | Mostly Cloudy | FEW009 BKN016TCU BKN120 BKN300 | 84.2 | 77 | 79% | 94 | 29.76 | 0.0 | ||||||
| 06 | 16:50 | E 5 | 13.00 | Mostly Cloudy | FEW009 BKN016TCU BKN120 BKN300 | 86 | 78.8 | 79% | 99 | 29.75 | 0.0 | ||||||
| 06 | 15:50 | SE 7 | 13.00 | Mostly Cloudy | BKN016TCU BKN120 BKN300 | 86 | 78.8 | 79% | 99 | 29.75 | 0.0 | ||||||
| 06 | 14:50 | SE 5 | 13.00 | Mostly Cloudy | BKN015TCU BKN120 BKN300 | 84.2 | 78.8 | 84% | 96 | 29.75 | 0.0 | ||||||
| 06 | 13:50 | SE 6 | 12.00 | Mostly Cloudy | BKN015TCU BKN120 BKN300 | 82.4 | 78.8 | 89% | 92 | 29.76 | 0.0 | ||||||
| 06 | 12:50 | S 5 | 8.00 | Light Showers Rain | BKN015CB BKN110 BKN290 | 78.8 | 77 | 94% | 83 | 29.77 | 0.0 | ||||||
| 06 | 11:50 | N 3 | 10.00 | Showers in Vicinity | BKN015CB BKN110 BKN290 | 80.6 | 77 | 89% | 87 | 29.79 | 0.0 | ||||||
| 06 | 10:50 | SE 6 | 13.00 | Mostly Cloudy | SCT016 BKN130 BKN320 | 86 | 78.8 | 79% | 99 | 29.8 | 0.0 | ||||||
| 06 | 09:50 | SE 7 | 13.00 | Mostly Cloudy | SCT016 BKN130 BKN310 | 86 | 78.8 | 79% | 99 | 29.81 | 0.0 | ||||||
| 06 | 08:50 | E 8 | 13.00 | Mostly Cloudy | SCT016 BKN120 BKN300 | 84.2 | 78.8 | 84% | 96 | 29.81 | 0.0 | ||||||
| 06 | 07:50 | SE 6 | 13.00 | Mostly Cloudy | SCT016 BKN120 BKN300 | 82.4 | 78.8 | 89% | 92 | 29.81 | 0.0 | ||||||
| 06 | 06:50 | SE 6 | 13.00 | Mostly Cloudy | SCT015CB BKN110 BKN280 | 80.6 | 78.8 | 94% | 88 | 29.8 | 0.0 | ||||||
| 06 | 05:50 | E 5 | 12.00 | Mostly Cloudy | SCT015CB BKN110 BKN280 | 78.8 | 77 | 94% | 83 | 29.78 | 0.0 | ||||||
| 06 | 04:50 | SE 5 | 12.00 | Mostly Cloudy | SCT015CB BKN110 BKN280 | 78.8 | 77 | 94% | 83 | 29.76 | 0.0 | ||||||
| 06 | 03:50 | Calm | 12.00 | Mostly Cloudy | SCT015CB BKN110 BKN280 | 78.8 | 77 | 94% | 83 | 29.74 | 0.0 | ||||||
| 06 | 02:50 | Calm | 12.00 | Mostly Cloudy | SCT015CB BKN110 BKN280 | 78.8 | 77 | 94% | 83 | 29.75 | 0.0 | ||||||
| 06 | 01:50 | Calm | 12.00 | Mostly Cloudy | SCT015CB BKN110 BKN280 | 78.8 | 77 | 94% | 83 | 29.76 | 0.0 | ||||||
| 06 | 00:50 | Calm | 11.00 | Mostly Cloudy | SCT015CB BKN110 BKN280 | 78.8 | 77 | 94% | 83 | 29.77 | 0.0 | ||||||
| 05 | 23:50 | Calm | 11.00 | Mostly Cloudy | SCT013CB BKN100 BKN280 | 78.8 | 77 | 94% | 83 | 29.77 | 0.0 | ||||||
| 05 | 22:50 | Calm | 11.00 | Mostly Cloudy | SCT013CB BKN100 BKN280 | 78.8 | 77 | 94% | 83 | 29.78 | 0.0 | ||||||
| 05 | 21:50 | NE 3 | 11.00 | Mostly Cloudy | SCT013CB BKN100 BKN280 | 78.8 | 77 | 94% | 83 | 29.78 | 0.0 | ||||||
| 05 | 20:50 | SE 6 | 9.00 | Light Showers Rain | BKN013CB BKN100 OVC280 | 78.8 | 78.8 | 100% | 83 | 29.78 | 0.0 | ||||||
| 05 | 19:50 | Calm | 8.00 | Light Showers Rain | BKN013CB BKN100 OVC280 | 80.6 | 77 | 89% | 87 | 29.76 | 0.0 | ||||||
| 05 | 18:50 | NE 3 | 8.00 | Light Showers Rain | BKN014CB BKN110 OVC290 | 80.6 | 77 | 89% | 87 | 29.74 | 0.0 | ||||||
| 05 | 17:50 | NE 5 | 10.00 | Showers in Vicinity | BKN014CB BKN110 OVC290 | 80.6 | 78.8 | 94% | 88 | 29.72 | 0.0 | ||||||
| 05 | 16:50 | NE 5 | 7.00 | Light Showers Rain | BKN014CB BKN110 OVC290 | 80.6 | 77 | 89% | 87 | 29.7 | 0.0 | ||||||
| 05 | 15:50 | W 5 | 4.00 | Rain | BKN014CB BKN110 OVC290 | 82.4 | 78.8 | 89% | 92 | 29.7 | 0.0 | ||||||
| 05 | 14:50 | S 3 | 8.00 | Light Showers Rain | BKN014TCU BKN120 OVC300 | 82.4 | 78.8 | 89% | 92 | 29.71 | 0.0 | ||||||
| 05 | 13:50 | S 6 | 8.00 | Light Showers Rain | BKN014TCU BKN120 BKN300 | 84.2 | 78.8 | 84% | 96 | 29.72 | 0.0 | ||||||
| 05 | 12:50 | W 10 | 13.00 | Mostly Cloudy | SCT015TCU BKN130 BKN320 | 86 | 78.8 | 79% | 99 | 29.75 | 0.0 | ||||||
| 05 | 11:50 | W 8 | 13.00 | Mostly Cloudy | BKN015TCU BKN130 BKN310 | 86 | 78.8 | 79% | 99 | 29.77 | 0.0 | ||||||
| 05 | 10:50 | W 7 | 13.00 | Mostly Cloudy | SCT015 BKN120 BKN300 | 86 | 77 | 75% | 97 | 29.78 | 0.0 | ||||||
| 05 | 09:50 | NW 6 | 13.00 | Mostly Cloudy | SCT016CB BKN120 BKN300 | 84.2 | 77 | 79% | 94 | 29.79 | 0.0 | ||||||
| 05 | 08:50 | N 5 | 13.00 | Mostly Cloudy | BKN015CB BKN110 BKN290 | 82.4 | 77 | 84% | 91 | 29.82 | 0.0 | ||||||
| 05 | 07:50 | NW 7 | 13.00 | Overcast | BKN015CB BKN110 OVC290 | 82.4 | 77 | 84% | 91 | 29.81 | 0.0 | ||||||
| 05 | 06:50 | W 6 | 13.00 | Overcast | SCT015CB BKN110 OVC290 | 80.6 | 77 | 89% | 87 | 29.79 | 0.0 | ||||||
| 05 | 05:50 | W 6 | 13.00 | Overcast | SCT015CB BKN110 OVC290 | 78.8 | 77 | 94% | 83 | 29.77 | 0.0 | ||||||
| 05 | 04:50 | SW 6 | 13.00 | Overcast | BKN015CB BKN110 OVC290 | 78.8 | 77 | 94% | 83 | 29.76 | 0.0 | ||||||
| 05 | 03:50 | W 7 | 13.00 | Overcast | BKN015CB BKN110 OVC290 | 78.8 | 77 | 94% | 83 | 29.76 | 0.0 | ||||||
| 05 | 02:50 | W 6 | 13.00 | Overcast | BKN015CB BKN110 OVC290 | 78.8 | 77 | 94% | 83 | 29.77 | 0.0 | ||||||
| 05 | 01:50 | W 7 | 13.00 | Overcast | BKN015CB BKN110 OVC290 | 78.8 | 77 | 94% | 83 | 29.78 | 0.0 | ||||||
| 05 | 00:50 | Calm | 13.00 | Overcast | BKN015CB BKN110 OVC290 | 78.8 | 77 | 94% | 83 | 29.8 | 0.0 | ||||||
| 04 | 23:50 | Calm | 13.00 | Overcast | SCT014CB BKN110 OVC290 | 78.8 | 77 | 94% | 83 | 29.82 | 0.0 | ||||||
| 04 | 22:50 | Calm | 10.00 | Light Rain | SCT014CB BKN110 OVC290 | 78.8 | 77 | 94% | 83 | 29.83 | 0.0 | ||||||
| 04 | 21:50 | Calm | 7.00 | Light Rain | SCT014CB OVC110 | 77 | 75.2 | 94% | 78 | 29.83 | 0.0 | ||||||
| 04 | 20:50 | Calm | 8.00 | Light Rain | SCT014CB OVC110 | 77 | 75.2 | 94% | 78 | 29.82 | 0.0 | ||||||
| 04 | 19:50 | NW 3 | 8.00 | Light Rain | FEW009 BKN013CB OVC100 | 77 | 75.2 | 94% | 78 | 29.81 | 0.0 | ||||||
| 04 | 18:50 | N 3 | 7.00 | Light Rain | FEW009 BKN013CB OVC100 | 77 | 75.2 | 94% | 78 | 29.79 | 0.0 | ||||||
| 04 | 17:50 | N 7 | 7.00 | Thunderstorm Light Rain | FEW009 BKN013CB OVC100 | 77 | 75.2 | 94% | 78 | 29.79 | 0.0 | ||||||
| 04 | 16:50 | W 7 | 8.00 | Light Rain | FEW009 BKN014CB OVC100 | 77 | 75.2 | 94% | 78 | 29.77 | 0.0 | ||||||
| 04 | 15:50 | E 9 G 21 | 2.00 | Heavy Rain | OVC014CB | 78.8 | 77 | 94% | 83 | 29.76 | 0.0 | ||||||
| 04 | 14:50 | NW 6 | 13.00 | Overcast | BKN015CB BKN110 OVC290 | 84.2 | 77 | 79% | 94 | 29.75 | 0.0 | ||||||
| 04 | 13:50 | N 6 | 12.00 | Overcast | BKN015CB BKN110 OVC290 | 82.4 | 77 | 84% | 91 | 29.78 | 0.0 | ||||||
| 04 | 12:50 | N 9 G 18 | 7.00 | Light Showers Rain | BKN015TCU BKN120 OVC300 | 82.4 | 77 | 84% | 91 | 29.8 | 0.0 | ||||||
| 04 | 11:50 | NE 7 | 13.00 | Mostly Cloudy | BKN015TCU BKN130 BKN310 | 87.8 | 77 | 70% | 100 | 29.81 | 0.0 | ||||||
| 04 | 10:50 | NE 8 | 13.00 | Mostly Cloudy | BKN015TCU BKN120 BKN300 | 86 | 77 | 75% | 97 | 29.83 | 0.0 | ||||||
| 04 | 09:50 | NE 5 | 14.00 | Mostly Cloudy | BKN015TCU BKN120 BKN300 | 86 | 77 | 75% | 97 | 29.83 | 0.0 | ||||||
| 04 | 08:50 | N 6 | 14.00 | Mostly Cloudy | SCT016 BKN120 BKN300 | 86 | 77 | 75% | 97 | 29.83 | 0.0 | ||||||
| 04 | 07:50 | N 5 | 14.00 | Mostly Cloudy | SCT016 BKN120 BKN300 | 84.2 | 77 | 79% | 94 | 29.82 | 0.0 | ||||||
| 04 | 06:50 | Calm | 14.00 | Mostly Cloudy | SCT015 BKN110 BKN290 | 78.8 | 75.2 | 89% | 82 | 29.79 | 0.0 | ||||||
| 04 | 05:50 | NE 3 | 14.00 | Mostly Cloudy | SCT015 BKN110 BKN290 | 77 | 75.2 | 94% | 78 | 29.78 | 0.0 | ||||||
| 04 | 04:50 | Calm | 14.00 | Mostly Cloudy | SCT015 BKN110 BKN290 | 77 | 75.2 | 94% | 78 | 29.77 | 0.0 | ||||||
| 04 | 03:50 | Calm | 14.00 | Mostly Cloudy | SCT015 BKN110 BKN290 | 77 | 75.2 | 94% | 78 | 29.77 | 0.0 | ||||||
| 04 | 02:50 | NE 3 | 14.00 | Mostly Cloudy | SCT015 BKN110 BKN290 | 78.8 | 75.2 | 89% | 82 | 29.78 | 0.0 | ||||||
| 04 | 01:50 | N 3 | 14.00 | Mostly Cloudy | SCT015 BKN110 BKN290 | 78.8 | 75.2 | 89% | 82 | 29.8 | 0.0 | ||||||
| 04 | 00:50 | N 5 | 14.00 | Mostly Cloudy | SCT015 BKN110 BKN290 | 78.8 | 75.2 | 89% | 82 | 29.82 | 0.0 | ||||||
| 03 | 23:50 | Calm | 14.00 | Partly Cloudy | FEW015 SCT110 SCT290 | 78.8 | 75.2 | 89% | 82 | 29.83 | 0.0 | ||||||
| 03 | 22:50 | Calm | 14.00 | Partly Cloudy | FEW015 SCT110 SCT290 | 80.6 | 75.2 | 84% | 86 | 29.85 | 0.0 | ||||||
| Date | Time (+09) | Wind (mph) | Vis. (mi.) | Weather | Sky Cond. | Air | Dwpt | Max. | Min. | Relative Humidity | Wind Chill (°F) | Heat Index (°F) | altimeter (in) | sea level (mb) | 1 hr | 3 hr | 6 hr |
| 6 hour | |||||||||||||||||
| Temperature (ºF) | Pressure | Precipitation (in) | |||||||||||||||